Time;durP1;ratioP1;P1;durP2;ratioP2;P2;SDS_P1;SDS_P2;PMS_P1;PMS_P2;Temp;Humidity;BMP_temperature;BMP_pressure;BME280_temperature;BME280_humidity;BME280_pressure;Samples;Min_cycle;Max_cycle;Signal;HPM_P1;HPM_P2
2022/12/01 00:01:50;;;;;;;5.25;4.65;;;;;;;19.32;52.52;97447.94;10540261;28;20063;-52
2022/12/01 00:07:09;;;;;;;5.53;4.43;;;;;;;19.32;52.50;97439.03;10539029;28;20048;-51
2022/12/01 00:12:30;;;;;;;6.65;4.68;;;;;;;19.31;52.46;97454.44;10553462;28;20040;-52
2022/12/01 00:17:49;;;;;;;5.78;4.60;;;;;;;19.28;52.36;97446.94;10540060;28;20051;-50
2022/12/01 00:23:09;;;;;;;5.32;4.57;;;;;;;19.29;52.41;97450.47;10539178;28;20055;-50
2022/12/01 00:28:28;;;;;;;6.13;4.20;;;;;;;19.26;52.41;97443.75;10539378;28;20040;-51
2022/12/01 00:33:47;;;;;;;5.97;4.20;;;;;;;19.26;52.41;97443.75;10539377;28;20055;-51
2022/12/01 00:39:07;;;;;;;5.97;4.55;;;;;;;19.24;52.38;97440.56;10551191;28;20052;-51
2022/12/01 00:44:26;;;;;;;6.20;4.50;;;;;;;19.23;52.30;97447.09;10539014;28;20052;-51
2022/12/01 00:49:46;;;;;;;5.70;4.38;;;;;;;19.22;52.36;97452.78;10538145;28;20411;-51
2022/12/01 00:55:06;;;;;;;6.88;5.00;;;;;;;19.21;52.28;97451.16;10538494;28;20105;-51
2022/12/01 01:00:25;;;;;;;6.00;4.95;;;;;;;19.19;52.29;97453.38;10546108;28;20495;-52
2022/12/01 01:05:45;;;;;;;5.40;4.72;;;;;;;19.18;52.26;97447.19;10538444;28;20129;-50
2022/12/01 01:11:06;;;;;;;5.47;4.38;;;;;;;19.16;52.32;97447.47;10551948;28;20048;-50
2022/12/01 01:16:25;;;;;;;5.28;4.60;;;;;;;19.15;52.15;97445.91;10536384;28;20055;-51
2022/12/01 01:21:45;;;;;;;7.00;4.53;;;;;;;19.12;52.12;97441.09;10536836;28;20495;-51
2022/12/01 01:27:07;;;;;;;5.47;4.70;;;;;;;19.12;52.11;97441.09;10551384;28;20407;-50
2022/12/01 01:32:27;;;;;;;5.63;4.18;;;;;;;19.10;52.00;97443.31;10537013;28;20048;-50
2022/12/01 01:37:46;;;;;;;5.07;4.28;;;;;;;19.09;52.00;97438.22;10537791;28;20044;-51
2022/12/01 01:43:13;;;;;;;5.45;4.50;;;;;;;19.08;52.07;97434.72;10537575;28;20059;-51
2022/12/01 01:48:33;;;;;;;5.05;4.13;;;;;;;19.06;51.97;97438.84;10522206;28;20045;-52
2022/12/01 01:53:55;;;;;;;5.40;4.78;;;;;;;19.06;52.04;97438.84;10540513;28;20071;-51
2022/12/01 01:59:19;;;;;;;5.55;4.28;;;;;;;19.04;52.14;97435.66;10536623;28;20417;-50
2022/12/01 02:04:41;;;;;;;5.18;4.57;;;;;;;19.01;51.92;97431.63;10504967;28;20407;-52
2022/12/01 02:10:00;;;;;;;6.60;4.72;;;;;;;19.02;52.00;97432.44;10517110;28;20048;-51
2022/12/01 02:15:26;;;;;;;6.32;4.45;;;;;;;19.00;52.04;97430.03;10544566;28;20055;-51
2022/12/01 02:21:01;;;;;;;6.10;4.30;;;;;;;18.99;51.94;97422.25;10544021;28;20048;-52
2022/12/01 02:26:32;;;;;;;6.00;4.60;;;;;;;18.97;51.77;97419.84;10558153;28;20044;-50
2022/12/01 02:31:52;;;;;;;6.05;4.53;;;;;;;18.95;51.72;97419.34;10528865;28;20055;-51
2022/12/01 02:37:25;;;;;;;5.32;4.82;;;;;;;18.95;51.76;97419.34;10544186;28;20406;-51
2022/12/01 02:43:01;;;;;;;6.28;5.00;;;;;;;18.93;51.62;97410.75;10543896;28;20052;-50
2022/12/01 02:48:27;;;;;;;4.97;4.50;;;;;;;18.91;51.63;97415.66;10543496;28;20044;-51
2022/12/01 02:53:47;;;;;;;5.72;4.50;;;;;;;18.90;51.70;97406.00;10527813;28;20484;-50
2022/12/01 02:59:11;;;;;;;6.15;4.85;;;;;;;18.89;51.65;97407.88;10527733;28;20060;-51
2022/12/01 03:05:03;;;;;;;6.07;4.75;;;;;;;18.88;51.47;97402.78;10556320;28;20399;-51
2022/12/01 03:10:50;;;;;;;5.28;4.32;;;;;;;18.86;51.52;97402.31;10518074;28;20048;-51
2022/12/01 03:16:32;;;;;;;5.57;4.63;;;;;;;18.84;51.55;97404.50;10524719;28;20079;-52
2022/12/01 03:22:25;;;;;;;5.32;4.60;;;;;;;18.83;51.33;97413.69;10514416;28;20048;-51
2022/12/01 03:27:46;;;;;;;4.90;4.40;;;;;;;18.82;51.46;97401.28;10533728;28;20044;-51
2022/12/01 03:33:10;;;;;;;5.22;4.60;;;;;;;18.80;51.39;97392.69;10541607;28;20047;-51
2022/12/01 03:38:32;;;;;;;4.97;4.30;;;;;;;18.78;51.45;97388.38;10541653;28;20056;-48
2022/12/01 03:43:57;;;;;;;5.00;4.50;;;;;;;18.77;51.56;97394.09;10541301;28;20056;-50
2022/12/01 03:49:17;;;;;;;6.35;4.53;;;;;;;18.76;51.33;97397.91;10524504;28;20066;-51
2022/12/01 03:54:46;;;;;;;4.97;4.47;;;;;;;18.75;51.35;97405.19;10548895;28;20479;-51
2022/12/01 04:00:07;;;;;;;5.90;4.88;;;;;;;18.73;51.47;97415.47;10540628;28;20052;-51
2022/12/01 04:05:33;;;;;;;5.88;4.95;;;;;;;18.73;51.35;97409.28;10540344;28;20052;-51
2022/12/01 04:10:53;;;;;;;6.50;4.90;;;;;;;18.71;51.21;97408.78;10540363;28;20040;-49
2022/12/01 04:16:13;;;;;;;6.20;4.80;;;;;;;18.70;51.23;97407.19;10540139;28;20075;-50
2022/12/01 04:21:32;;;;;;;5.20;4.70;;;;;;;18.68;51.33;97412.09;10539641;28;20052;-51
2022/12/01 04:26:51;;;;;;;5.18;4.57;;;;;;;18.68;51.25;97410.22;10538730;28;20093;-49
2022/12/01 04:32:12;;;;;;;7.07;4.68;;;;;;;18.66;51.32;97409.72;10539097;28;20048;-51
2022/12/01 04:37:31;;;;;;;5.10;4.60;;;;;;;18.65;51.32;97408.09;10539438;28;20122;-51
2022/12/01 04:42:50;;;;;;;5.13;4.63;;;;;;;18.64;51.23;97409.22;10539274;28;20055;-52
2022/12/01 04:48:10;;;;;;;5.03;4.28;;;;;;;18.63;51.21;97404.13;10536543;28;20471;-52
2022/12/01 04:53:30;;;;;;;5.55;4.45;;;;;;;18.62;51.09;97408.72;10536992;28;20044;-51
2022/12/01 04:58:49;;;;;;;4.70;4.30;;;;;;;18.61;51.08;97406.31;10537980;28;20058;-51
2022/12/01 05:04:13;;;;;;;5.50;4.63;;;;;;;18.58;51.06;97413.94;10537893;28;20486;-50
2022/12/01 05:09:33;;;;;;;5.95;4.45;;;;;;;18.58;51.65;97413.94;10537159;28;20377;-50
2022/12/01 05:14:53;;;;;;;6.10;5.00;;;;;;;18.57;51.44;97427.72;10538188;28;20051;-53
2022/12/01 05:26:05;;;;;;;7.00;5.03;;;;;;;18.55;51.45;97419.13;10550640;28;20040;-52
2022/12/01 05:31:25;;;;;;;9.55;5.15;;;;;;;18.53;51.47;97422.13;10537146;28;20056;-51
2022/12/01 05:36:44;;;;;;;7.97;5.07;;;;;;;18.53;51.71;97416.72;10537070;28;20074;-52
2022/12/01 05:42:03;;;;;;;7.80;4.78;;;;;;;18.54;51.72;97423.72;10543629;28;20051;-51
2022/12/01 05:47:22;;;;;;;5.32;4.50;;;;;;;18.54;51.29;97423.72;10541628;28;20036;-51
2022/12/01 05:52:42;;;;;;;5.72;5.10;;;;;;;18.56;51.78;97423.41;10545052;28;20093;-49
2022/12/01 05:58:01;;;;;;;7.30;6.15;;;;;;;18.55;51.76;97424.53;10527228;28;20056;-51
2022/12/01 06:03:21;;;;;;;7.47;6.47;;;;;;;18.55;51.77;97432.63;10540374;28;20102;-51
2022/12/01 06:08:41;;;;;;;8.52;5.80;;;;;;;18.55;52.09;97440.72;10545276;28;20044;-50
2022/12/01 06:14:00;;;;;;;10.40;6.38;;;;;;;18.57;52.27;97446.59;10544775;28;20048;-51
2022/12/01 06:19:19;;;;;;;21.67;8.43;;;;;;;18.57;52.07;97443.91;10567222;28;20105;-52
2022/12/01 06:24:38;;;;;;;17.20;7.38;;;;;;;18.59;51.95;97457.91;10543821;28;20056;-50
2022/12/01 06:29:58;;;;;;;16.23;8.10;;;;;;;18.60;51.97;97454.06;10530024;28;20487;-49
2022/12/01 06:35:17;;;;;;;16.00;8.48;;;;;;;18.61;52.04;97458.38;10543829;28;20073;-51
2022/12/01 06:40:37;;;;;;;14.68;7.80;;;;;;;18.62;52.04;97462.69;10543753;28;20243;-51
2022/12/01 06:45:56;;;;;;;17.30;8.25;;;;;;;18.64;52.03;97465.91;10556970;28;20043;-52
2022/12/01 06:51:16;;;;;;;14.43;7.78;;;;;;;18.66;51.83;97462.88;10534153;28;20407;-51
2022/12/01 06:56:35;;;;;;;15.55;8.07;;;;;;;18.67;51.95;97459.88;10540234;28;20047;-50
2022/12/01 07:01:56;;;;;;;14.35;8.13;;;;;;;18.69;52.02;97468.47;10541853;28;20407;-52
2022/12/01 07:07:15;;;;;;;13.63;7.72;;;;;;;18.71;51.85;97462.78;10535319;28;20048;-52
2022/12/01 07:12:35;;;;;;;13.27;7.68;;;;;;;18.73;51.88;97482.94;10542753;28;20063;-50
2022/12/01 07:17:55;;;;;;;12.10;7.75;;;;;;;18.75;51.78;97486.16;10556076;28;20048;-51
2022/12/01 07:23:15;;;;;;;14.05;7.53;;;;;;;18.77;51.94;97496.66;10541259;28;20047;-52
2022/12/01 07:28:34;;;;;;;13.80;7.65;;;;;;;18.79;51.95;97491.75;10555526;28;20036;-52
2022/12/01 07:33:56;;;;;;;12.57;7.80;;;;;;;18.81;51.93;97497.69;10528295;28;20496;-52
2022/12/01 07:39:15;;;;;;;13.93;8.05;;;;;;;18.84;52.07;97496.28;10541486;28;20044;-50
2022/12/01 07:44:35;;;;;;;11.27;7.35;;;;;;;18.87;52.15;97509.97;10527711;28;20109;-51
2022/12/01 07:49:54;;;;;;;13.30;7.80;;;;;;;18.88;52.00;97499.97;10540847;28;20048;-52
2022/12/01 07:55:14;;;;;;;13.23;7.65;;;;;;;18.91;52.05;97499.34;10553090;28;20388;-52
2022/12/01 08:00:33;;;;;;;12.05;7.95;;;;;;;18.93;51.86;97491.75;10536077;28;20101;-52
2022/12/01 08:06:00;;;;;;;12.23;7.68;;;;;;;18.95;51.91;97489.56;10544464;28;20411;-52
2022/12/01 08:11:22;;;;;;;12.75;9.10;;;;;;;18.97;51.51;97484.66;10554054;28;20044;-52
2022/12/01 08:16:41;;;;;;;14.52;9.20;;;;;;;19.00;51.58;97489.44;10542697;28;20044;-52
2022/12/01 08:22:01;;;;;;;15.63;8.75;;;;;;;19.02;51.46;97481.06;10539996;28;20059;-51
2022/12/01 08:27:21;;;;;;;12.27;8.43;;;;;;;19.04;51.31;97489.66;10539263;28;20130;-52
2022/12/01 08:32:41;;;;;;;12.43;8.35;;;;;;;19.06;51.08;97488.22;10553140;28;20044;-51
2022/12/01 08:38:00;;;;;;;12.60;8.68;;;;;;;19.09;51.11;97489.53;10530685;28;20647;-52
2022/12/01 08:43:19;;;;;;;12.15;8.88;;;;;;;19.11;51.16;97490.84;10546393;28;20032;-52
2022/12/01 08:48:39;;;;;;;12.95;8.77;;;;;;;19.12;51.16;97489.72;10535191;28;20052;-49
2022/12/01 08:54:00;;;;;;;13.43;8.85;;;;;;;19.16;51.13;97493.41;10538360;28;21228;-51
2022/12/01 08:59:19;;;;;;;13.30;8.80;;;;;;;19.19;51.39;97502.00;10519587;28;20504;-52
2022/12/01 09:04:39;;;;;;;11.43;8.05;;;;;;;19.22;51.30;97510.28;10496035;28;20052;-53
2022/12/01 09:09:58;;;;;;;11.95;8.07;;;;;;;19.25;51.40;97511.56;10509574;28;20047;-52
2022/12/01 09:15:17;;;;;;;10.50;8.10;;;;;;;19.26;51.51;97503.19;10509317;28;20041;-53
2022/12/01 09:20:37;;;;;;;11.70;7.72;;;;;;;19.28;51.47;97494.78;10520717;28;20101;-51
2022/12/01 09:25:59;;;;;;;11.65;8.55;;;;;;;19.32;51.12;97514.66;10500800;28;20040;-52
2022/12/01 09:31:19;;;;;;;9.82;7.47;;;;;;;19.32;51.20;97504.66;10509506;28;20458;-52
2022/12/01 09:36:39;;;;;;;11.10;8.10;;;;;;;19.36;51.40;97518.34;10496364;28;20412;-51
2022/12/01 09:42:02;;;;;;;11.95;8.40;;;;;;;19.37;51.22;97509.16;10495235;28;20513;-52
2022/12/01 09:47:28;;;;;;;10.90;8.38;;;;;;;19.41;51.21;97498.56;10494803;28;20048;-51
2022/12/01 09:52:50;;;;;;;10.52;8.10;;;;;;;19.42;51.45;97506.31;10482400;28;20098;-53
2022/12/01 09:58:17;;;;;;;10.20;7.97;;;;;;;19.44;51.11;97498.72;10494309;28;20408;-52
2022/12/01 10:03:45;;;;;;;12.85;8.23;;;;;;;19.46;50.97;97501.91;10495255;28;20056;-51
2022/12/01 10:09:17;;;;;;;9.77;7.63;;;;;;;19.49;50.91;97503.22;10494504;28;20044;-51
2022/12/01 10:14:37;;;;;;;10.98;7.95;;;;;;;19.51;50.90;97493.69;10495130;28;20059;-52
2022/12/01 10:20:26;;;;;;;10.18;7.38;;;;;;;19.53;50.88;97486.06;10508643;28;20051;-51
2022/12/01 10:25:56;;;;;;;8.63;7.05;;;;;;;19.54;50.83;97482.28;10469441;28;20052;-51
2022/12/01 10:31:38;;;;;;;10.43;7.43;;;;;;;19.59;51.03;97475.16;10502666;28;20052;-52
2022/12/01 10:36:58;;;;;;;10.43;7.75;;;;;;;19.60;50.77;97472.16;10467149;28;20049;-50
2022/12/01 10:42:20;;;;;;;9.45;7.20;;;;;;;19.61;50.84;97464.81;10515313;28;20487;-53
2022/12/01 10:48:25;;;;;;;9.32;7.28;;;;;;;19.64;50.74;97461.50;10512306;28;20048;-52
2022/12/01 10:53:45;;;;;;;8.57;6.72;;;;;;;19.66;50.92;97467.38;10494026;28;20063;-53
2022/12/01 10:59:21;;;;;;;8.45;7.05;;;;;;;19.69;50.64;97461.38;10518328;28;20067;-52
2022/12/01 11:04:49;;;;;;;7.97;6.55;;;;;;;19.70;50.67;97463.78;10528185;28;20048;-52
2022/12/01 11:10:28;;;;;;;9.37;6.73;;;;;;;19.71;50.54;97453.75;10543008;28;20048;-52
2022/12/01 11:16:00;;;;;;;8.07;6.72;;;;;;;19.73;50.49;97455.06;10527340;28;20058;-52
2022/12/01 11:21:26;;;;;;;8.10;6.82;;;;;;;19.75;50.46;97438.53;10542745;28;20048;-52
2022/12/01 11:26:46;;;;;;;9.50;6.68;;;;;;;19.75;50.31;97444.72;10531215;28;20491;-51
2022/12/01 11:32:17;;;;;;;7.78;6.60;;;;;;;19.77;50.41;97441.72;10542112;28;20048;-53
2022/12/01 11:37:43;;;;;;;8.18;6.55;;;;;;;19.79;50.37;97431.41;10541361;28;20411;-52
2022/12/01 11:43:05;;;;;;;8.30;6.70;;;;;;;19.81;50.48;97439.22;10526325;28;20056;-53
2022/12/01 11:48:26;;;;;;;8.00;6.47;;;;;;;19.82;50.40;97438.91;10525399;28;20483;-52
2022/12/01 11:53:46;;;;;;;7.80;7.00;;;;;;;19.83;50.28;97439.69;10541007;28;20056;-52
2022/12/01 11:59:12;;;;;;;7.40;6.45;;;;;;;19.84;50.39;97439.41;10532297;28;20056;-52
2022/12/01 12:04:57;;;;;;;8.60;6.32;;;;;;;19.85;50.25;97449.09;10540240;28;20055;-51
2022/12/01 12:10:25;;;;;;;8.55;6.53;;;;;;;19.86;50.35;97439.88;10540733;28;20044;-52
2022/12/01 12:16:00;;;;;;;7.95;6.15;;;;;;;19.85;50.11;97438.28;10540236;28;20064;-51
2022/12/01 12:21:49;;;;;;;7.28;6.25;;;;;;;19.86;50.23;97434.47;10553191;28;20048;-52
2022/12/01 12:27:27;;;;;;;;;;;;;;;19.85;50.25;97427.44;10531544;28;20059;-52
2022/12/01 12:33:02;;;;;;;8.40;6.45;;;;;;;19.85;50.22;97426.66;10539749;28;19920;-51
2022/12/01 12:38:54;;;;;;;8.73;6.50;;;;;;;19.84;50.26;97427.78;10552836;28;20047;-51
2022/12/01 12:44:38;;;;;;;7.72;6.28;;;;;;;19.84;50.15;97428.56;10511478;28;20055;-51
2022/12/01 12:50:31;;;;;;;6.75;5.80;;;;;;;19.83;50.37;97418.06;10551623;28;20036;-51
2022/12/01 12:55:53;;;;;;;7.40;6.20;;;;;;;19.84;50.33;97423.16;10520954;28;20060;-51
2022/12/01 13:01:17;;;;;;;6.72;6.00;;;;;;;19.83;50.31;97435.06;10516659;28;20396;-52
2022/12/01 13:06:46;;;;;;;6.32;5.65;;;;;;;19.82;50.31;97428.09;10537244;28;20445;-51
2022/12/01 13:12:14;;;;;;;6.65;5.55;;;;;;;19.81;50.26;97431.88;10538496;28;20051;-51
2022/12/01 13:17:40;;;;;;;7.43;5.97;;;;;;;19.81;50.36;97440.00;10551618;28;20051;-51
2022/12/01 13:23:00;;;;;;;6.63;5.20;;;;;;;19.81;50.41;97431.09;10522944;28;20052;-51
2022/12/01 13:28:23;;;;;;;7.10;6.13;;;;;;;19.80;50.45;97434.91;10540392;28;20043;-51
2022/12/01 13:33:56;;;;;;;7.00;5.95;;;;;;;19.78;50.48;97440.63;10537757;28;20055;-51
2022/12/01 13:39:22;;;;;;;6.68;5.68;;;;;;;19.77;50.46;97433.63;10537914;28;20056;-52
2022/12/01 13:44:57;;;;;;;6.15;5.43;;;;;;;19.76;50.69;97440.16;10537942;28;20052;-51
2022/12/01 13:50:35;;;;;;;6.22;5.60;;;;;;;19.76;50.68;97429.34;10537463;28;20052;-52
2022/12/01 13:55:56;;;;;;;6.72;5.80;;;;;;;19.74;50.69;97434.25;10533602;28;20102;-52
2022/12/01 14:01:18;;;;;;;6.90;5.43;;;;;;;19.73;50.80;97421.84;10533980;28;20059;-51
2022/12/01 14:06:50;;;;;;;8.10;6.00;;;;;;;19.73;50.41;97429.94;10545281;28;20052;-52
2022/12/01 14:12:31;;;;;;;6.72;5.90;;;;;;;19.71;50.27;97422.13;10545220;28;20052;-53
2022/12/01 14:18:00;;;;;;;6.95;5.88;;;;;;;19.70;50.69;97414.31;10558771;28;20063;-52
2022/12/01 14:23:32;;;;;;;7.10;6.13;;;;;;;19.68;50.62;97414.63;10534845;28;20048;-52
2022/12/01 14:28:55;;;;;;;6.75;6.05;;;;;;;19.67;50.49;97423.84;10543922;28;20052;-52
2022/12/01 14:34:23;;;;;;;7.45;6.03;;;;;;;19.66;50.44;97427.66;10544004;28;20399;-52
2022/12/01 14:40:03;;;;;;;6.60;5.90;;;;;;;19.64;50.31;97421.75;10544248;28;20044;-51
2022/12/01 14:45:37;;;;;;;6.60;5.90;;;;;;;19.64;50.27;97426.34;10532984;28;20060;-52
2022/12/01 14:51:15;;;;;;;7.10;5.80;;;;;;;19.61;50.50;97419.66;10541612;28;20049;-52
2022/12/01 14:56:35;;;;;;;5.47;4.97;;;;;;;19.61;50.52;97422.38;10521709;28;20487;-52
2022/12/01 15:02:07;;;;;;;6.47;5.80;;;;;;;19.60;50.50;97422.69;10515705;28;20049;-52
2022/12/01 15:07:27;;;;;;;6.70;5.35;;;;;;;19.58;50.59;97425.69;10500986;28;20054;-51
2022/12/01 15:12:48;;;;;;;6.93;5.68;;;;;;;19.56;50.48;97420.59;10490741;28;20385;-51
2022/12/01 15:18:37;;;;;;;6.10;5.50;;;;;;;19.55;50.36;97429.00;10500139;28;20500;-50
2022/12/01 15:24:00;;;;;;;6.93;5.45;;;;;;;19.54;50.42;97438.22;10500039;28;20052;-52
2022/12/01 15:29:24;;;;;;;7.85;5.50;;;;;;;19.52;50.35;97435.84;10500332;28;20049;-51
2022/12/01 15:34:46;;;;;;;6.72;5.93;;;;;;;19.51;50.42;97428.84;10500124;28;20052;-51
2022/12/01 15:40:08;;;;;;;8.43;5.85;;;;;;;19.49;50.30;97417.53;10492152;28;20055;-53
2022/12/01 15:45:27;;;;;;;6.40;5.05;;;;;;;19.48;50.34;97429.47;10498096;28;20060;-52
2022/12/01 15:51:02;;;;;;;6.18;5.57;;;;;;;19.48;50.30;97429.47;10509729;28;20094;-51
2022/12/01 15:56:31;;;;;;;6.35;5.47;;;;;;;19.45;50.26;97427.38;10495251;28;20049;-51
2022/12/01 16:01:51;;;;;;;6.32;5.32;;;;;;;19.43;50.30;97421.47;10532413;28;20059;-52
2022/12/01 16:07:11;;;;;;;5.85;5.25;;;;;;;19.42;50.24;97414.47;10540526;28;20127;-51
2022/12/01 16:12:35;;;;;;;6.65;5.18;;;;;;;19.41;50.14;97412.88;10525232;28;20059;-51
2022/12/01 16:17:55;;;;;;;7.22;5.38;;;;;;;19.40;50.34;97410.47;10539270;28;20047;-51
2022/12/01 16:23:21;;;;;;;6.28;5.43;;;;;;;19.39;50.26;97412.38;10540152;28;20060;-52
2022/12/01 16:28:41;;;;;;;7.07;5.28;;;;;;;19.38;50.26;97408.06;10540298;28;20076;-51
2022/12/01 16:34:01;;;;;;;7.20;5.57;;;;;;;19.36;50.30;97413.78;10539692;28;20071;-52
2022/12/01 16:39:21;;;;;;;7.82;5.60;;;;;;;19.38;50.27;97413.47;10524255;28;20059;-51
2022/12/01 16:44:43;;;;;;;6.47;5.60;;;;;;;19.37;50.21;97401.09;10552816;28;20040;-49
2022/12/01 16:50:03;;;;;;;7.25;5.40;;;;;;;19.36;50.26;97396.78;10539112;28;20059;-52
2022/12/01 16:55:53;;;;;;;5.72;4.85;;;;;;;19.37;49.94;97392.97;10532350;28;20090;-50
2022/12/01 17:01:12;;;;;;;5.85;5.25;;;;;;;19.37;50.28;97401.09;10532280;28;20052;-52
2022/12/01 17:06:32;;;;;;;6.55;5.30;;;;;;;19.38;50.28;97401.88;10533858;28;20060;-51
2022/12/01 17:11:51;;;;;;;6.22;5.60;;;;;;;19.39;50.03;97423.19;10538452;28;20106;-51
2022/12/01 17:17:11;;;;;;;5.68;5.07;;;;;;;19.38;50.11;97418.88;10538307;28;20086;-52
2022/12/01 17:22:30;;;;;;;6.57;5.30;;;;;;;19.40;50.08;97423.97;10537125;28;20550;-51
2022/12/01 17:27:50;;;;;;;6.43;5.25;;;;;;;19.40;49.96;97427.47;10530749;28;20055;-51
2022/12/01 17:33:10;;;;;;;6.22;5.63;;;;;;;19.41;49.84;97418.28;10538296;28;20056;-51
2022/12/01 17:38:29;;;;;;;6.03;5.18;;;;;;;19.43;50.04;97432.28;10544463;28;20108;-52
2022/12/01 17:43:49;;;;;;;6.88;5.28;;;;;;;19.43;49.84;97429.56;10560197;28;20043;-53
2022/12/01 17:49:09;;;;;;;5.57;5.03;;;;;;;19.44;49.95;97433.06;10559723;28;20047;-52
2022/12/01 17:54:29;;;;;;;9.30;5.45;;;;;;;19.44;50.00;97443.88;10557675;28;20040;-51
2022/12/01 17:59:48;;;;;;;6.65;5.65;;;;;;;19.45;50.06;97443.56;10540535;28;20052;-51
2022/12/01 18:05:07;;;;;;;5.60;5.05;;;;;;;19.49;49.97;97441.06;10546035;28;20109;-51
2022/12/01 18:10:27;;;;;;;6.60;5.15;;;;;;;19.48;48.03;97445.69;10558545;28;20101;-52
2022/12/01 18:15:47;;;;;;;10.18;5.90;;;;;;;19.50;48.76;97438.06;10558695;28;20036;-51
2022/12/01 18:21:09;;;;;;;10.00;8.13;;;;;;;19.52;48.05;97443.13;10544888;28;20052;-48
2022/12/01 18:26:31;;;;;;;9.15;7.78;;;;;;;19.54;48.55;97428.22;10544191;28;20513;-52
2022/12/01 18:31:57;;;;;;;9.18;7.78;;;;;;;19.56;48.62;97433.31;10544268;28;20056;-52
2022/12/01 18:37:16;;;;;;;13.07;7.70;;;;;;;19.56;48.87;97426.00;10544011;28;20499;-51
2022/12/01 18:42:36;;;;;;;12.93;7.20;;;;;;;19.58;49.19;97428.38;10544326;28;20085;-53
2022/12/01 18:47:55;;;;;;;8.98;7.55;;;;;;;19.60;49.24;97433.50;10530195;28;20044;-52
2022/12/01 18:53:15;;;;;;;8.85;7.18;;;;;;;19.60;49.49;97431.59;10544658;28;20506;-53
2022/12/01 18:58:35;;;;;;;11.00;7.55;;;;;;;19.62;49.78;97445.59;10538351;28;20101;-52
2022/12/01 19:03:55;;;;;;;9.20;6.88;;;;;;;19.64;49.82;97439.88;10527295;28;20056;-54
2022/12/01 19:09:15;;;;;;;9.05;7.55;;;;;;;19.66;50.06;97446.59;10542881;28;20048;-54
2022/12/01 19:14:35;;;;;;;11.80;7.55;;;;;;;19.67;49.69;97437.34;10542697;28;20056;-54
2022/12/01 19:19:54;;;;;;;9.10;7.60;;;;;;;19.69;49.75;97434.34;10542659;28;20052;-53
2022/12/01 19:25:14;;;;;;;11.13;6.82;;;;;;;19.71;49.74;97429.41;10542467;28;20109;-53
2022/12/01 19:30:34;;;;;;;9.02;7.25;;;;;;;19.73;49.77;97419.91;10526966;28;20051;-50
2022/12/01 19:35:53;;;;;;;9.52;6.45;;;;;;;19.77;49.75;97424.72;10525842;28;20056;-52
2022/12/01 19:41:15;;;;;;;9.15;7.10;;;;;;;19.77;49.80;97414.69;10541836;28;20055;-53
2022/12/01 19:46:34;;;;;;;9.18;6.47;;;;;;;19.78;50.01;97405.50;10541481;28;20059;-53
2022/12/01 19:51:54;;;;;;;8.10;6.78;;;;;;;19.82;49.81;97416.47;10539032;28;20048;-53
2022/12/01 19:57:14;;;;;;;7.65;6.82;;;;;;;19.82;49.84;97428.09;10540142;28;20139;-53
2022/12/01 20:02:33;;;;;;;9.10;6.88;;;;;;;19.85;50.00;97438.28;10540169;28;20544;-51
2022/12/01 20:07:53;;;;;;;8.48;6.95;;;;;;;19.85;49.62;97432.06;10540956;28;20048;-53
2022/12/01 20:13:12;;;;;;;9.38;6.70;;;;;;;19.86;49.65;97431.75;10538242;28;20047;-53
2022/12/01 20:18:32;;;;;;;8.43;6.90;;;;;;;19.88;49.40;97431.47;10540508;28;20102;-53
2022/12/01 20:24:00;;;;;;;11.85;7.15;;;;;;;19.89;49.66;97428.41;10539871;28;20052;-51
2022/12/01 20:29:21;;;;;;;;;;;;;;;19.90;49.26;97423.84;10547665;28;20471;-51
2022/12/01 20:34:40;;;;;;;7.25;6.47;;;;;;;19.91;49.53;97418.09;10539587;28;20299;-51
2022/12/01 20:40:01;;;;;;;7.65;6.70;;;;;;;19.90;49.68;97421.91;10539563;28;20100;-51
2022/12/01 20:45:21;;;;;;;7.70;6.70;;;;;;;19.92;49.81;97433.22;10526734;28;20064;-49
2022/12/01 20:50:40;;;;;;;7.88;6.57;;;;;;;19.94;49.90;97435.63;10536263;28;20063;-54
2022/12/01 20:56:04;;;;;;;12.57;7.07;;;;;;;19.95;50.13;97437.19;10537643;28;20507;-53
2022/12/01 21:01:23;;;;;;;9.18;6.85;;;;;;;19.94;50.10;97430.22;10543187;28;20071;-54
2022/12/01 21:06:44;;;;;;;11.02;7.32;;;;;;;19.96;50.34;97428.00;10538350;28;20071;-54
2022/12/01 21:17:57;;;;;;;14.18;11.95;;;;;;;19.99;45.53;97421.16;10538437;28;20348;-54
2022/12/01 21:23:18;;;;;;;16.90;11.90;;;;;;;19.97;45.70;97423.38;10538254;28;20047;-53
2022/12/01 21:28:41;;;;;;;16.63;13.68;;;;;;;19.94;47.25;97422.09;10548311;28;20177;-53
2022/12/01 21:34:01;;;;;;;19.50;13.15;;;;;;;19.92;47.08;97425.13;10537858;28;20055;-54
2022/12/01 21:39:22;;;;;;;14.85;12.43;;;;;;;19.91;47.24;97422.72;10521880;28;20483;-53
2022/12/01 21:44:42;;;;;;;14.82;12.45;;;;;;;19.90;47.29;97419.22;10537878;28;20411;-54
2022/12/01 21:50:05;;;;;;;17.02;13.30;;;;;;;19.92;47.49;97421.63;10537734;28;20051;-53
2022/12/01 21:55:25;;;;;;;17.05;12.70;;;;;;;19.88;47.55;97413.31;10536282;28;20094;-54
2022/12/01 22:00:44;;;;;;;14.02;12.23;;;;;;;19.89;47.56;97411.41;10536925;28;20538;-53
2022/12/01 22:06:19;;;;;;;15.70;12.40;;;;;;;19.88;47.53;97399.00;10531870;28;20052;-53
2022/12/01 22:11:42;;;;;;;15.55;11.90;;;;;;;19.86;47.74;97393.13;10550633;28;20045;-54
2022/12/01 22:17:05;;;;;;;14.15;11.82;;;;;;;19.84;47.77;97398.84;10535692;28;20093;-55
2022/12/01 22:22:28;;;;;;;13.80;11.13;;;;;;;19.84;47.87;97400.75;10529308;28;20055;-53
2022/12/01 22:27:48;;;;;;;14.75;11.43;;;;;;;19.82;47.94;97395.66;10558296;28;20040;-53
2022/12/01 22:33:19;;;;;;;15.27;11.55;;;;;;;19.80;47.77;97402.44;10543648;28;20052;-53
2022/12/01 22:38:39;;;;;;;13.77;11.55;;;;;;;19.79;48.14;97398.97;10544082;28;20052;-54
2022/12/01 22:44:01;;;;;;;14.13;11.60;;;;;;;19.79;48.11;97392.75;10544226;28;20048;-54
2022/12/01 22:49:22;;;;;;;14.93;11.00;;;;;;;19.77;48.28;97382.25;10544077;28;20063;-53
2022/12/01 22:54:44;;;;;;;12.85;10.65;;;;;;;19.75;48.34;97387.97;10535594;28;20048;-53
2022/12/01 23:00:21;;;;;;;13.13;10.73;;;;;;;19.74;48.31;97374.78;10526889;28;20485;-53
2022/12/01 23:05:41;;;;;;;13.10;10.68;;;;;;;19.72;48.43;97361.56;10556874;28;20040;-53
2022/12/01 23:11:01;;;;;;;13.35;11.00;;;;;;;19.71;48.66;97346.44;10543076;28;20060;-54
2022/12/01 23:16:20;;;;;;;13.57;10.70;;;;;;;19.71;48.74;97361.84;10542956;28;20052;-53
2022/12/01 23:21:39;;;;;;;12.93;10.55;;;;;;;19.69;48.82;97361.34;10542402;28;20055;-54
2022/12/01 23:26:59;;;;;;;13.13;10.90;;;;;;;19.67;48.78;97377.88;10555988;28;20376;-54
2022/12/01 23:32:19;;;;;;;13.15;10.23;;;;;;;19.67;48.78;97377.88;10542341;28;20380;-53
2022/12/01 23:37:40;;;;;;;13.07;10.88;;;;;;;19.65;48.95;97379.31;10555647;28;20040;-53
2022/12/01 23:43:28;;;;;;;11.63;9.40;;;;;;;19.64;48.66;97364.19;10533681;28;20458;-54
2022/12/01 23:48:52;;;;;;;12.27;10.20;;;;;;;19.63;48.87;97368.81;10538798;28;20044;-52
2022/12/01 23:54:18;;;;;;;12.32;9.93;;;;;;;19.62;48.87;97361.00;10554186;28;20479;-53
2022/12/01 23:59:38;;;;;;;11.68;10.25;;;;;;;19.60;48.81;97350.53;10544794;28;20055;-53
